createdAt,value
2019-05-06T00:01:29.007Z,100116.25
2019-05-06T00:04:01.013Z,100116.69
2019-05-06T00:06:34.388Z,100112.91
2019-05-06T00:09:05.908Z,100112.91
2019-05-06T00:11:38.131Z,100107.48
2019-05-06T00:14:09.426Z,100107.48
2019-05-06T00:16:40.889Z,100104.19
2019-05-06T00:19:13.901Z,100104.19
2019-05-06T00:21:44.945Z,100090.28
2019-05-06T00:24:16.500Z,100103.76
2019-05-06T00:26:55.129Z,100103.76
2019-05-06T00:29:27.067Z,100108.02
2019-05-06T00:31:58.341Z,100101.78
2019-05-06T00:34:29.562Z,100101.78
2019-05-06T00:37:00.714Z,100091.69
2019-05-06T00:39:45.681Z,100105.27
2019-05-06T00:42:18.621Z,100101.36
2019-05-06T00:44:50.137Z,100101.06
2019-05-06T00:47:21.487Z,100102.80
2019-05-06T00:49:54.616Z,100099.36
2019-05-06T00:52:26.148Z,100099.36
2019-05-06T00:54:57.175Z,100091.23
2019-05-06T00:57:44.032Z,100096.38
2019-05-06T01:00:17.657Z,100093.91
2019-05-06T01:02:48.855Z,100092.42
2019-05-06T01:05:20.018Z,100095.13
2019-05-06T01:07:51.439Z,100088.95
2019-05-06T01:10:23.814Z,100092.34
2019-05-06T01:12:59.869Z,100094.52
2019-05-06T01:15:31.551Z,100096.09
2019-05-06T01:18:04.251Z,100088.95
2019-05-06T01:20:35.680Z,100091.08
2019-05-06T01:23:06.938Z,100086.73
2019-05-06T01:25:38.437Z,100091.73
2019-05-06T01:28:10.048Z,100095.91
2019-05-06T01:30:41.679Z,100089.88
2019-05-06T01:33:14.461Z,100087.39
2019-05-06T01:35:45.735Z,100086.33
2019-05-06T01:38:34.092Z,100085.55
2019-05-06T01:41:19.007Z,100085.45
2019-05-06T01:43:50.412Z,100087.95
2019-05-06T01:46:21.766Z,100094.01
2019-05-06T01:48:53.715Z,100085.09
2019-05-06T01:51:24.881Z,100073.52
2019-05-06T01:53:56.341Z,100073.23
2019-05-06T01:56:28.440Z,100066.23
2019-05-06T01:58:59.458Z,100077.47
2019-05-06T02:01:30.597Z,100082.16
2019-05-06T02:04:01.641Z,100085.83
2019-05-06T02:06:34.266Z,100081.64
2019-05-06T02:09:09.974Z,100085.23
2019-05-06T02:11:41.014Z,100085.23
2019-05-06T02:14:14.000Z,100075.50
2019-05-06T02:16:45.570Z,100070.23
2019-05-06T02:19:16.810Z,100070.23
2019-05-06T02:21:54.313Z,100072.83
2019-05-06T02:24:30.262Z,100077.42
2019-05-06T02:27:01.930Z,100077.84
2019-05-06T02:29:37.480Z,100084.05
2019-05-06T02:32:31.185Z,100082.55
2019-05-06T02:35:14.953Z,100074.05
2019-05-06T02:37:46.924Z,100068.19
2019-05-06T02:40:25.131Z,100065.80
2019-05-06T02:42:56.749Z,100070.61
2019-05-06T02:45:28.297Z,100063.10
2019-05-06T02:48:13.979Z,100068.71
2019-05-06T02:50:47.081Z,100076.27
2019-05-06T02:53:19.767Z,100071.13
2019-05-06T02:55:53.163Z,100066.75
2019-05-06T02:58:24.720Z,100064.97
2019-05-06T03:00:56.049Z,100072.53
2019-05-06T03:03:27.535Z,100065.66
2019-05-06T03:05:58.937Z,100068.80
2019-05-06T03:08:32.702Z,100062.59
2019-05-06T03:11:04.220Z,100062.59
2019-05-06T03:13:37.031Z,100053.16
2019-05-06T03:16:08.898Z,100064.67
2019-05-06T03:18:43.117Z,100054.09
2019-05-06T03:21:26.548Z,100063.44
2019-05-06T03:24:17.876Z,100063.44
2019-05-06T03:26:53.439Z,100069.02
2019-05-06T03:29:25.334Z,100070.67
2019-05-06T03:31:57.531Z,100068.75
2019-05-06T03:34:52.493Z,100068.75
2019-05-06T03:37:06.648Z,100069.67
2019-05-06T03:39:35.106Z,100069.67
2019-05-06T03:42:06.168Z,100075.05
2019-05-06T03:44:39.121Z,100078.58
2019-05-06T03:47:13.933Z,100078.55
2019-05-06T03:49:54.386Z,100078.55
2019-05-06T03:52:23.647Z,100075.53
2019-05-06T03:54:55.688Z,100071.98
2019-05-06T03:57:28.144Z,100075.70
2019-05-06T03:59:59.928Z,100062.20
2019-05-06T04:02:33.638Z,100064.99
2019-05-06T04:05:06.525Z,100056.08
2019-05-06T04:07:37.778Z,100064.13
2019-05-06T04:10:08.822Z,100062.17
2019-05-06T04:12:43.322Z,100060.97
2019-05-06T04:15:14.198Z,100063.01
2019-05-06T04:17:47.069Z,100062.45
2019-05-06T04:20:23.393Z,100067.08
2019-05-06T04:22:54.698Z,100069.86
2019-05-06T04:25:44.263Z,100064.97
2019-05-06T04:28:17.244Z,100073.59
2019-05-06T04:30:49.117Z,100067.55
2019-05-06T04:33:20.084Z,100065.30
2019-05-06T04:35:54.073Z,100065.52
2019-05-06T04:38:24.607Z,100065.49
2019-05-06T04:40:56.003Z,100062.25
2019-05-06T04:43:27.549Z,100072.20
2019-05-06T04:45:58.771Z,100071.41
2019-05-06T04:48:32.942Z,100065.62
2019-05-06T04:51:03.930Z,100065.53
2019-05-06T04:53:35.598Z,100067.05
2019-05-06T04:56:06.949Z,100063.33
2019-05-06T04:58:38.194Z,100059.59
2019-05-06T05:01:12.142Z,100060.70
2019-05-06T05:03:42.807Z,100061.55
2019-05-06T05:06:13.884Z,100059.82
2019-05-06T05:08:45.142Z,100064.41
2019-05-06T05:11:22.657Z,100060.05
2019-05-06T05:14:02.871Z,100058.22
2019-05-06T05:16:52.734Z,100066.05
2019-05-06T05:19:23.625Z,100066.84
2019-05-06T05:21:56.821Z,100070.75
2019-05-06T05:24:28.994Z,100069.61
2019-05-06T05:27:00.144Z,100064.75
2019-05-06T05:29:32.564Z,100073.30
2019-05-06T05:32:05.097Z,100063.36
2019-05-06T05:34:40.648Z,100065.31
2019-05-06T05:37:08.939Z,100062.34
2019-05-06T05:39:40.079Z,100058.40
2019-05-06T05:42:16.140Z,100063.05
2019-05-06T05:44:49.238Z,100059.42
2019-05-06T05:47:22.096Z,100058.72
2019-05-06T05:50:03.943Z,100057.50
2019-05-06T05:52:35.477Z,100061.06
2019-05-06T05:55:07.029Z,100056.22
2019-05-06T05:57:38.280Z,100057.88
2019-05-06T06:00:10.152Z,100044.02
2019-05-06T06:02:43.694Z,100056.11
2019-05-06T06:05:14.621Z,100047.17
2019-05-06T06:07:46.152Z,100049.16
2019-05-06T06:10:22.662Z,100049.95
2019-05-06T06:12:55.320Z,100052.29
2019-05-06T06:15:44.276Z,100051.14
2019-05-06T06:18:33.756Z,100050.27
2019-05-06T06:21:24.713Z,100049.34
2019-05-06T06:23:53.452Z,100054.67
2019-05-06T06:26:24.862Z,100049.47
2019-05-06T06:28:56.177Z,100049.23
2019-05-06T06:31:29.152Z,100047.16
2019-05-06T06:34:02.242Z,100047.35
2019-05-06T06:36:52.605Z,100047.83
2019-05-06T06:39:32.693Z,100039.58
2019-05-06T06:42:03.958Z,100039.33
2019-05-06T06:44:36.232Z,100041.78
2019-05-06T06:47:08.396Z,100040.87
2019-05-06T06:49:42.237Z,100027.75
2019-05-06T06:52:14.855Z,100031.86
2019-05-06T06:54:45.933Z,100031.08
2019-05-06T06:57:34.222Z,100028.19
2019-05-06T07:00:06.723Z,100021.64
2019-05-06T07:02:55.036Z,100025.25
2019-05-06T07:05:33.932Z,100022.65
2019-05-06T07:08:05.393Z,100028.48
2019-05-06T07:10:46.062Z,100027.27
2019-05-06T07:13:17.323Z,100024.66
2019-05-06T07:15:48.698Z,100025.98
2019-05-06T07:18:22.442Z,100023.14
2019-05-06T07:20:57.521Z,100019.36
2019-05-06T07:23:32.543Z,100020.25
2019-05-06T07:26:03.257Z,100028.16
2019-05-06T07:28:34.539Z,100026.61
2019-05-06T07:31:20.694Z,100025.12
2019-05-06T07:33:38.964Z,100025.88
2019-05-06T07:36:10.182Z,100020.18
2019-05-06T07:38:43.649Z,100019.94
2019-05-06T07:41:19.351Z,100011.48
2019-05-06T07:43:52.635Z,100017.53
2019-05-06T07:46:29.510Z,100011.06
2019-05-06T07:49:03.323Z,100008.38
2019-05-06T07:51:34.047Z,99999.99
2019-05-06T07:54:05.274Z,99997.77
2019-05-06T07:56:36.748Z,99998.91
2019-05-06T07:59:08.157Z,99994.50
2019-05-06T08:01:40.224Z,99992.06
2019-05-06T08:04:12.026Z,99991.52
2019-05-06T08:06:43.210Z,99992.54
2019-05-06T08:09:15.450Z,99983.19
2019-05-06T08:11:46.774Z,99981.44
2019-05-06T08:14:18.125Z,99974.36
2019-05-06T08:17:02.217Z,99969.51
2019-05-06T08:19:33.709Z,99985.22
2019-05-06T08:22:06.709Z,99977.20
2019-05-06T08:24:37.997Z,99972.61
2019-05-06T08:27:09.412Z,99976.38
2019-05-06T08:29:42.479Z,99973.11
2019-05-06T08:32:13.852Z,99976.55
2019-05-06T08:34:45.047Z,99968.10
2019-05-06T08:37:33.457Z,99977.08
2019-05-06T08:40:06.651Z,99970.55
2019-05-06T08:42:38.006Z,99982.05
2019-05-06T08:45:09.660Z,99977.61
2019-05-06T08:47:42.591Z,99972.34
2019-05-06T08:50:25.065Z,99967.62
2019-05-06T08:53:09.977Z,99965.39
2019-05-06T08:55:52.941Z,99961.23
2019-05-06T08:58:25.838Z,99956.31
2019-05-06T09:01:05.109Z,99964.52
2019-05-06T09:03:36.643Z,99955.97
2019-05-06T09:06:07.880Z,99950.47
2019-05-06T09:08:39.462Z,99944.45
2019-05-06T09:11:12.202Z,99951.00
2019-05-06T09:13:43.222Z,99945.20
2019-05-06T09:16:14.728Z,99944.14
2019-05-06T09:18:46.182Z,99945.55
2019-05-06T09:21:17.223Z,99939.61
2019-05-06T09:23:48.534Z,99935.34
2019-05-06T09:26:22.439Z,99931.13
2019-05-06T09:28:55.274Z,99939.05
2019-05-06T09:31:28.264Z,99940.96
2019-05-06T09:34:03.756Z,99925.66
2019-05-06T09:36:44.215Z,99929.26
2019-05-06T09:39:08.733Z,99938.58
2019-05-06T09:41:45.926Z,99921.03
2019-05-06T09:44:14.341Z,99929.55
2019-05-06T09:46:45.482Z,99933.61
2019-05-06T09:49:22.892Z,99922.86
2019-05-06T09:51:54.026Z,99915.16
2019-05-06T09:54:27.130Z,99926.36
2019-05-06T09:57:12.905Z,99921.95
2019-05-06T09:59:44.140Z,99924.39
2019-05-06T10:02:15.508Z,99922.57
2019-05-06T10:04:46.996Z,99925.44
2019-05-06T10:07:18.328Z,99918.38
2019-05-06T10:09:49.579Z,99914.41
2019-05-06T10:12:20.614Z,99912.11
2019-05-06T10:14:53.222Z,99906.50
2019-05-06T10:17:24.461Z,99911.03
2019-05-06T10:19:55.529Z,99908.19
2019-05-06T10:22:27.049Z,99908.09
2019-05-06T10:24:58.461Z,99910.33
2019-05-06T10:27:30.672Z,99899.71
2019-05-06T10:30:03.668Z,99905.47
2019-05-06T10:32:47.396Z,99905.31
2019-05-06T10:35:18.662Z,99904.61
2019-05-06T10:38:05.011Z,99903.69
2019-05-06T10:40:57.353Z,99907.13
2019-05-06T10:43:53.938Z,99903.22
2019-05-06T10:46:25.081Z,99893.98
2019-05-06T10:48:56.537Z,99902.78
2019-05-06T10:51:45.667Z,99894.56
2019-05-06T10:54:18.373Z,99904.14
2019-05-06T10:56:56.912Z,99904.97
2019-05-06T10:59:24.409Z,99902.39
2019-05-06T11:01:57.459Z,99898.25
2019-05-06T11:04:28.893Z,99893.13
2019-05-06T11:07:00.270Z,99892.78
2019-05-06T11:09:33.285Z,99876.99
2019-05-06T11:12:04.819Z,99886.71
2019-05-06T11:14:35.999Z,99883.54
2019-05-06T11:17:07.411Z,99877.81
2019-05-06T11:19:38.757Z,99879.75
2019-05-06T11:22:09.910Z,99878.63
2019-05-06T11:24:42.179Z,99878.73
2019-05-06T11:27:27.495Z,99868.48
2019-05-06T11:29:52.929Z,99855.41
2019-05-06T11:32:25.201Z,99869.89
2019-05-06T11:34:58.072Z,99857.61
2019-05-06T11:37:46.355Z,99856.19
2019-05-06T11:40:06.149Z,99856.11
2019-05-06T11:42:37.206Z,99857.44
2019-05-06T11:45:08.949Z,99858.48
2019-05-06T11:47:42.065Z,99848.38
2019-05-06T11:50:13.240Z,99855.45
2019-05-06T11:52:44.320Z,99852.98
2019-05-06T11:55:27.833Z,99852.16
2019-05-06T11:57:49.798Z,99848.64
2019-05-06T12:00:23.927Z,99835.72
2019-05-06T12:02:55.165Z,99840.30
2019-05-06T12:05:26.614Z,99839.47
2019-05-06T12:08:04.605Z,99831.95
2019-05-06T12:10:30.548Z,99835.50
2019-05-06T12:13:02.804Z,99839.44
2019-05-06T12:15:34.057Z,99833.59
2019-05-06T12:18:05.121Z,99822.53
2019-05-06T12:20:36.541Z,99823.88
2019-05-06T12:23:07.994Z,99830.72
2019-05-06T12:25:39.380Z,99824.05
2019-05-06T12:28:12.374Z,99821.75
2019-05-06T12:30:43.710Z,99815.53
2019-05-06T12:33:28.858Z,99808.77
2019-05-06T12:36:18.868Z,99817.90
2019-05-06T12:39:09.773Z,99818.52
2019-05-06T12:41:57.764Z,99809.02
2019-05-06T12:44:32.135Z,99818.92
2019-05-06T12:47:20.860Z,99819.95
2019-05-06T12:49:53.400Z,99811.16
2019-05-06T12:52:24.798Z,99820.32
2019-05-06T12:55:13.641Z,99805.63
2019-05-06T12:57:29.656Z,99804.17
2019-05-06T13:00:03.523Z,99805.45
2019-05-06T13:02:34.480Z,99796.36
2019-05-06T13:05:07.448Z,99794.70
2019-05-06T13:07:42.825Z,99796.53
2019-05-06T13:10:19.170Z,99790.80
2019-05-06T13:12:54.092Z,99785.65
2019-05-06T13:15:24.700Z,99789.30
2019-05-06T13:17:55.980Z,99796.57
2019-05-06T13:20:29.999Z,99781.16
2019-05-06T13:23:09.524Z,99784.67
2019-05-06T13:25:36.205Z,99787.66
2019-05-06T13:28:09.536Z,99789.08
2019-05-06T13:30:43.341Z,99778.98
2019-05-06T13:33:16.108Z,99776.53
2019-05-06T13:35:47.738Z,99774.08
2019-05-06T13:38:19.012Z,99773.81
2019-05-06T13:40:57.089Z,99778.10
2019-05-06T13:43:27.210Z,99762.06
2019-05-06T13:46:00.074Z,99770.16
2019-05-06T13:48:33.032Z,99774.97
2019-05-06T13:51:14.961Z,99756.97
2019-05-06T13:53:46.922Z,99763.40
2019-05-06T13:56:18.095Z,99768.51
2019-05-06T13:58:49.630Z,99758.83
2019-05-06T14:01:34.601Z,99759.41
2019-05-06T14:04:05.896Z,99765.09
2019-05-06T14:06:37.307Z,99764.64
2019-05-06T14:09:08.813Z,99768.38
2019-05-06T14:11:42.000Z,99759.67
2019-05-06T14:14:13.016Z,99758.08
2019-05-06T14:16:44.256Z,99757.46
2019-05-06T14:19:15.714Z,99743.17
2019-05-06T14:21:46.854Z,99743.85
2019-05-06T14:24:18.219Z,99751.92
2019-05-06T14:26:57.981Z,99746.45
2019-05-06T14:29:34.846Z,99747.97
2019-05-06T14:32:06.399Z,99741.22
2019-05-06T14:34:37.650Z,99738.66
2019-05-06T14:37:09.006Z,99738.36
2019-05-06T14:39:53.867Z,99738.69
2019-05-06T14:42:17.952Z,99738.70
2019-05-06T14:44:49.303Z,99732.48
2019-05-06T14:47:32.750Z,99727.73
2019-05-06T14:50:07.947Z,99729.24
2019-05-06T14:52:39.750Z,99720.25
2019-05-06T14:55:27.679Z,99716.51
2019-05-06T14:57:59.060Z,99718.52
2019-05-06T15:00:31.974Z,99717.22
2019-05-06T15:03:03.160Z,99713.50
2019-05-06T15:05:36.337Z,99711.22
2019-05-06T15:08:07.401Z,99700.52
2019-05-06T15:10:38.859Z,99702.66
2019-05-06T15:13:12.506Z,99703.37
2019-05-06T15:15:43.185Z,99702.46
2019-05-06T15:18:14.354Z,99703.21
2019-05-06T15:20:45.653Z,99696.95
2019-05-06T15:23:17.033Z,99697.34
2019-05-06T15:25:48.085Z,99693.56
2019-05-06T15:28:19.347Z,99689.45
2019-05-06T15:30:58.318Z,99695.42
2019-05-06T15:33:39.934Z,99695.01
2019-05-06T15:36:16.105Z,99694.77
2019-05-06T15:38:47.147Z,99691.13
2019-05-06T15:41:19.410Z,99693.31
2019-05-06T15:43:50.606Z,99683.61
2019-05-06T15:46:22.852Z,99686.16
2019-05-06T15:48:55.473Z,99683.38
2019-05-06T15:51:35.877Z,99680.34
2019-05-06T15:54:07.123Z,99678.61
2019-05-06T15:56:38.536Z,99680.03
2019-05-06T15:59:12.135Z,99681.14
2019-05-06T16:01:45.543Z,99680.88
2019-05-06T16:04:16.719Z,99681.41
2019-05-06T16:06:47.783Z,99677.23
2019-05-06T16:09:19.204Z,99674.56
2019-05-06T16:11:50.276Z,99678.87
2019-05-06T16:14:23.877Z,99675.78
2019-05-06T16:16:56.526Z,99677.98
2019-05-06T16:19:29.359Z,99670.77
2019-05-06T16:22:03.888Z,99672.69
2019-05-06T16:24:35.792Z,99668.31
2019-05-06T16:27:07.352Z,99675.59
2019-05-06T16:29:38.915Z,99668.33
2019-05-06T16:32:10.532Z,99672.02
2019-05-06T16:34:43.105Z,99670.27
2019-05-06T16:37:14.187Z,99671.30
2019-05-06T16:39:45.428Z,99676.30
2019-05-06T16:42:16.675Z,99673.94
2019-05-06T16:44:47.962Z,99674.34
2019-05-06T16:47:37.679Z,99675.66
2019-05-06T16:50:13.267Z,99672.97
2019-05-06T16:52:45.364Z,99671.92
2019-05-06T16:55:19.814Z,99675.09
2019-05-06T16:57:55.393Z,99677.67
2019-05-06T17:00:28.634Z,99680.58
2019-05-06T17:03:02.102Z,99677.81
2019-05-06T17:05:35.247Z,99671.13
2019-05-06T17:08:07.072Z,99667.58
2019-05-06T17:10:40.341Z,99671.28
2019-05-06T17:13:13.281Z,99669.34
2019-05-06T17:15:44.960Z,99671.12
2019-05-06T17:18:16.230Z,99668.66
2019-05-06T17:20:47.754Z,99667.70
2019-05-06T17:23:19.924Z,99676.42
2019-05-06T17:25:52.089Z,99678.76
2019-05-06T17:28:41.360Z,99679.48
2019-05-06T17:31:14.554Z,99680.13
2019-05-06T17:33:48.617Z,99680.44
2019-05-06T17:36:21.342Z,99680.08
2019-05-06T17:38:54.452Z,99679.03
2019-05-06T17:41:30.672Z,99683.95
2019-05-06T17:43:58.469Z,99682.94
2019-05-06T17:46:33.329Z,99681.19
2019-05-06T17:49:06.041Z,99679.75
2019-05-06T17:51:57.046Z,99681.86
2019-05-06T17:54:28.446Z,99686.77
2019-05-06T17:57:02.252Z,99688.51
2019-05-06T17:59:33.793Z,99679.02
2019-05-06T18:02:14.911Z,99685.59
2019-05-06T18:04:46.544Z,99685.39
2019-05-06T18:07:17.542Z,99680.70
2019-05-06T18:09:49.241Z,99687.13
2019-05-06T18:12:20.358Z,99682.72
2019-05-06T18:14:53.414Z,99684.47
2019-05-06T18:17:25.668Z,99686.80
2019-05-06T18:19:56.998Z,99687.18
2019-05-06T18:22:28.243Z,99695.13
2019-05-06T18:25:02.257Z,99696.41
2019-05-06T18:27:33.702Z,99695.19
2019-05-06T18:30:17.801Z,99690.83
2019-05-06T18:32:38.865Z,99689.53
2019-05-06T18:35:10.431Z,99689.33
2019-05-06T18:37:42.635Z,99690.60
2019-05-06T18:40:15.972Z,99689.33
2019-05-06T18:42:46.787Z,99688.95
2019-05-06T18:45:18.233Z,99690.61
2019-05-06T18:47:49.504Z,99691.02
2019-05-06T18:50:22.077Z,99689.20
2019-05-06T18:52:53.456Z,99689.29
2019-05-06T18:55:24.980Z,99681.72
2019-05-06T18:57:56.031Z,99690.27
2019-05-06T19:00:27.586Z,99685.99
2019-05-06T19:02:58.592Z,99686.16
2019-05-06T19:05:42.765Z,99678.59
2019-05-06T19:08:21.983Z,99676.33
2019-05-06T19:10:53.674Z,99677.40
2019-05-06T19:13:24.653Z,99674.80
2019-05-06T19:15:56.155Z,99676.65
2019-05-06T19:18:27.510Z,99677.91
2019-05-06T19:20:58.860Z,99678.02
2019-05-06T19:23:32.100Z,99678.72
2019-05-06T19:26:04.011Z,99679.41
2019-05-06T19:28:35.381Z,99682.73
2019-05-06T19:31:06.811Z,99679.64
2019-05-06T19:33:40.086Z,99674.36
2019-05-06T19:36:12.642Z,99671.96
2019-05-06T19:38:43.732Z,99672.91
2019-05-06T19:41:14.981Z,99676.16
2019-05-06T19:43:46.520Z,99684.87
2019-05-06T19:46:17.924Z,99676.62
2019-05-06T19:48:49.226Z,99674.21
2019-05-06T19:51:22.492Z,99679.15
2019-05-06T19:53:53.563Z,99673.78
2019-05-06T19:56:24.899Z,99677.56
2019-05-06T19:58:56.063Z,99675.77
2019-05-06T20:01:27.312Z,99668.91
2019-05-06T20:03:58.861Z,99671.45
2019-05-06T20:06:41.002Z,99671.70
2019-05-06T20:09:30.152Z,99674.78
2019-05-06T20:12:05.862Z,99668.83
2019-05-06T20:14:36.863Z,99673.18
2019-05-06T20:17:08.288Z,99675.20
2019-05-06T20:19:39.213Z,99671.48
2019-05-06T20:22:10.264Z,99672.97
2019-05-06T20:24:42.521Z,99671.00
2019-05-06T20:27:13.700Z,99673.02
2019-05-06T20:29:45.055Z,99675.64
2019-05-06T20:32:16.502Z,99679.34
2019-05-06T20:34:50.040Z,99680.58
2019-05-06T20:37:22.281Z,99673.67
2019-05-06T20:39:53.403Z,99680.46
2019-05-06T20:42:25.714Z,99681.48
2019-05-06T20:44:56.994Z,99686.37
2019-05-06T20:47:28.300Z,99680.20
2019-05-06T20:49:59.668Z,99677.20
2019-05-06T20:52:33.064Z,99684.35
2019-05-06T20:55:12.746Z,99681.14
2019-05-06T20:57:37.707Z,99683.11
2019-05-06T21:00:08.875Z,99685.78
2019-05-06T21:02:42.338Z,99685.89
2019-05-06T21:05:13.847Z,99687.38
2019-05-06T21:07:45.254Z,99679.02
2019-05-06T21:10:16.522Z,99676.67
2019-05-06T21:12:47.578Z,99682.23
2019-05-06T21:15:19.011Z,99682.80
2019-05-06T21:17:50.259Z,99677.28
2019-05-06T21:20:21.626Z,99675.09
2019-05-06T21:22:52.968Z,99664.48
2019-05-06T21:25:24.318Z,99668.22
2019-05-06T21:27:55.681Z,99664.13
2019-05-06T21:30:27.128Z,99653.23
2019-05-06T21:32:58.317Z,99652.66
2019-05-06T21:35:29.637Z,99650.94
2019-05-06T21:38:02.506Z,99653.44
2019-05-06T21:40:33.762Z,99651.92
2019-05-06T21:43:05.039Z,99648.69
2019-05-06T21:45:36.578Z,99655.83
2019-05-06T21:48:07.866Z,99647.12
2019-05-06T21:50:39.181Z,99644.44
2019-05-06T21:53:12.307Z,99648.52
2019-05-06T21:55:43.318Z,99640.20
2019-05-06T21:58:14.699Z,99644.56
2019-05-06T22:00:47.592Z,99645.06
2019-05-06T22:03:18.978Z,99643.00
2019-05-06T22:05:54.282Z,99645.64
2019-05-06T22:08:23.805Z,99642.69
2019-05-06T22:10:54.907Z,99639.78
2019-05-06T22:13:25.863Z,99643.98
2019-05-06T22:15:57.102Z,99640.41
2019-05-06T22:18:30.885Z,99635.76
2019-05-06T22:21:14.767Z,99639.88
2019-05-06T22:24:04.776Z,99635.02
2019-05-06T22:26:35.177Z,99640.93
2019-05-06T22:29:06.533Z,99625.55
2019-05-06T22:31:37.781Z,99632.83
2019-05-06T22:34:08.974Z,99635.74
2019-05-06T22:36:40.279Z,99635.37
2019-05-06T22:39:12.118Z,99633.73
2019-05-06T22:41:44.085Z,99633.02
2019-05-06T22:44:17.123Z,99632.23
2019-05-06T22:46:48.246Z,99637.05
2019-05-06T22:49:19.609Z,99630.47
2019-05-06T22:51:52.193Z,99632.34
2019-05-06T22:54:24.588Z,99640.80
2019-05-06T22:56:56.216Z,99641.45
2019-05-06T22:59:27.491Z,99644.32
2019-05-06T23:02:02.357Z,99633.38
2019-05-06T23:04:37.957Z,99637.47
2019-05-06T23:07:09.306Z,99641.83
2019-05-06T23:09:42.411Z,99639.65
2019-05-06T23:12:13.140Z,99644.13
2019-05-06T23:14:44.426Z,99643.34
2019-05-06T23:17:15.741Z,99639.23
2019-05-06T23:19:47.072Z,99635.94
2019-05-06T23:22:18.307Z,99631.81
2019-05-06T23:24:49.595Z,99627.91
2019-05-06T23:27:23.185Z,99623.42
2019-05-06T23:29:53.950Z,99623.42
2019-05-06T23:32:25.287Z,99618.62
2019-05-06T23:34:56.638Z,99617.51
2019-05-06T23:37:26.624Z,99618.00
2019-05-06T23:40:36.012Z,99614.98
2019-05-06T23:43:43.629Z,99614.66
2019-05-06T23:46:52.822Z,99613.22
2019-05-06T23:50:00.760Z,99602.05
2019-05-06T23:53:09.074Z,99608.78
2019-05-06T23:56:16.639Z,99609.03
2019-05-06T23:58:49.590Z,99602.14
